Terminal Aerodrome Forecast
Issued by NWS

Home | Current Version | Previous Version | Text Only | Print | Product List | Glossary On
Versions: 1 2 3 4 5 6 7 8 9 10 11 12
234
FTUS45 KABQ 271737
TAFFMN
TAF
KFMN 271737Z 2718/2818 17007KT P6SM SKC
     FM272100 24007KT P6SM FEW120
     FM280300 07005KT P6SM SCT120
     FM281600 12006KT P6SM BKN120=

USA.gov is the U.S. government's official web portal to all federal, state and local government web resources and services.